createdAt,value
2018-05-13T00:01:08.082Z,99.90
2018-05-13T00:03:35.698Z,99.90
2018-05-13T00:06:03.363Z,99.90
2018-05-13T00:08:30.962Z,99.90
2018-05-13T00:10:58.574Z,99.90
2018-05-13T00:13:26.174Z,99.90
2018-05-13T00:15:53.795Z,99.90
2018-05-13T00:18:21.419Z,99.90
2018-05-13T00:20:49.067Z,99.90
2018-05-13T00:23:16.661Z,99.90
2018-05-13T00:25:44.278Z,99.90
2018-05-13T00:28:11.899Z,99.90
2018-05-13T00:30:39.489Z,99.90
2018-05-13T00:33:07.881Z,99.90
2018-05-13T00:35:35.505Z,99.90
2018-05-13T00:38:03.142Z,99.90
2018-05-13T00:40:30.794Z,99.90
2018-05-13T00:42:58.387Z,99.90
2018-05-13T00:45:26.003Z,99.90
2018-05-13T00:47:53.639Z,99.90
2018-05-13T00:50:21.233Z,99.90
2018-05-13T00:52:48.836Z,99.90
2018-05-13T00:55:17.216Z,99.90
2018-05-13T00:57:44.801Z,99.90
2018-05-13T01:00:12.437Z,99.90
2018-05-13T01:02:40.912Z,99.90
2018-05-13T01:05:08.470Z,99.90
2018-05-13T01:07:36.826Z,99.90
2018-05-13T01:10:05.315Z,99.90
2018-05-13T01:12:32.934Z,99.90
2018-05-13T01:15:00.563Z,99.90
2018-05-13T01:17:28.202Z,99.90
2018-05-13T01:19:55.804Z,99.90
2018-05-13T01:22:23.402Z,99.90
2018-05-13T01:24:51.003Z,99.90
2018-05-13T01:27:19.363Z,99.90
2018-05-13T01:29:46.975Z,99.90
2018-05-13T01:32:14.623Z,99.90
2018-05-13T01:34:42.232Z,99.90
2018-05-13T01:37:09.850Z,99.90
2018-05-13T01:39:37.467Z,99.90
2018-05-13T01:42:05.114Z,99.90
2018-05-13T01:44:32.711Z,99.90
2018-05-13T01:47:01.146Z,99.90
2018-05-13T01:49:28.745Z,99.90
2018-05-13T01:51:57.156Z,99.90
2018-05-13T01:54:24.852Z,99.90
2018-05-13T01:56:52.459Z,99.90
2018-05-13T01:59:20.070Z,99.90
2018-05-13T02:01:47.674Z,99.90
2018-05-13T02:04:16.038Z,99.90
2018-05-13T02:06:44.406Z,99.90
2018-05-13T02:09:12.034Z,99.90
2018-05-13T02:11:39.681Z,99.90
2018-05-13T02:14:07.295Z,99.90
2018-05-13T02:16:35.672Z,99.90
2018-05-13T02:19:03.287Z,99.90
2018-05-13T02:21:30.932Z,99.90
2018-05-13T02:23:58.567Z,99.90
2018-05-13T02:26:26.922Z,99.90
2018-05-13T02:28:54.546Z,99.90
2018-05-13T02:31:22.154Z,99.90
2018-05-13T02:33:50.615Z,99.90
2018-05-13T02:36:18.224Z,99.90
2018-05-13T02:38:45.856Z,99.90
2018-05-13T02:41:13.523Z,99.90
2018-05-13T02:43:41.159Z,99.90
2018-05-13T02:46:08.778Z,99.90
2018-05-13T02:48:36.382Z,99.90
2018-05-13T02:51:03.982Z,99.90
2018-05-13T02:53:31.598Z,99.90
2018-05-13T02:55:59.194Z,99.90
2018-05-13T02:58:26.794Z,99.90
2018-05-13T03:00:54.434Z,99.90
2018-05-13T03:03:22.024Z,99.90
2018-05-13T03:05:49.636Z,99.90
2018-05-13T03:08:17.262Z,99.90
2018-05-13T03:10:44.857Z,99.90
2018-05-13T03:13:12.553Z,99.90
2018-05-13T03:15:40.162Z,99.90
2018-05-13T03:18:07.758Z,99.90
2018-05-13T03:20:35.350Z,99.90
2018-05-13T03:23:02.954Z,99.90
2018-05-13T03:25:31.317Z,99.90
2018-05-13T03:27:59.677Z,99.90
2018-05-13T03:30:27.321Z,99.90
2018-05-13T03:32:54.926Z,99.90
2018-05-13T03:35:23.291Z,99.90
2018-05-13T03:37:50.911Z,99.90
2018-05-13T03:40:18.501Z,99.90
2018-05-13T03:42:46.133Z,99.90
2018-05-13T03:45:13.812Z,99.90
2018-05-13T03:47:41.410Z,99.90
2018-05-13T03:50:09.783Z,99.90
2018-05-13T03:52:38.160Z,99.90
2018-05-13T03:55:05.802Z,99.90
2018-05-13T03:57:33.440Z,99.90
2018-05-13T04:00:01.162Z,99.90
2018-05-13T04:02:28.759Z,99.90
2018-05-13T04:04:56.359Z,99.90
2018-05-13T04:07:24.805Z,99.90
2018-05-13T04:10:04.035Z,99.90
2018-05-13T04:12:43.394Z,99.90
2018-05-13T04:15:26.692Z,99.90
2018-05-13T04:17:54.338Z,99.90
2018-05-13T04:20:21.969Z,99.90
2018-05-13T04:22:49.570Z,99.90
2018-05-13T04:25:17.211Z,99.90
2018-05-13T04:27:44.819Z,99.90
2018-05-13T04:30:12.422Z,99.90
2018-05-13T04:32:40.026Z,99.90
2018-05-13T04:35:07.616Z,99.90
2018-05-13T04:37:35.235Z,99.90
2018-05-13T04:40:02.841Z,99.90
2018-05-13T04:42:30.479Z,99.90
2018-05-13T04:44:58.095Z,99.90
2018-05-13T04:47:25.726Z,99.90
2018-05-13T04:49:54.095Z,99.90
2018-05-13T04:52:21.692Z,99.90
2018-05-13T04:54:49.305Z,99.90
2018-05-13T04:57:16.917Z,99.90
2018-05-13T04:59:44.514Z,99.90
2018-05-13T05:02:12.135Z,99.90
2018-05-13T05:04:39.738Z,99.90
2018-05-13T05:07:07.426Z,99.90
2018-05-13T05:09:35.813Z,99.90
2018-05-13T05:12:04.199Z,99.90
2018-05-13T05:14:31.810Z,99.90
2018-05-13T05:16:59.434Z,99.90
2018-05-13T05:19:27.043Z,99.90
2018-05-13T05:21:54.647Z,99.90
2018-05-13T05:24:22.275Z,99.90
2018-05-13T05:26:49.886Z,99.90
2018-05-13T05:29:17.488Z,99.90
2018-05-13T05:31:45.097Z,99.90
2018-05-13T05:34:12.756Z,99.90
2018-05-13T05:36:40.359Z,99.90
2018-05-13T05:39:07.982Z,99.90
2018-05-13T05:41:35.586Z,99.90
2018-05-13T05:44:03.192Z,99.90
2018-05-13T05:46:30.834Z,99.90
2018-05-13T05:48:58.446Z,99.90
2018-05-13T05:51:26.111Z,99.90
2018-05-13T05:53:53.765Z,99.90
2018-05-13T05:56:21.418Z,99.90
2018-05-13T05:58:49.011Z,99.90
2018-05-13T06:01:16.612Z,99.90
2018-05-13T06:03:44.238Z,99.90
2018-05-13T06:06:11.832Z,99.90
2018-05-13T06:08:39.443Z,99.90
2018-05-13T06:11:07.051Z,99.90
2018-05-13T06:13:34.693Z,99.90
2018-05-13T06:16:03.071Z,99.90
2018-05-13T06:18:30.679Z,99.90
2018-05-13T06:20:58.274Z,99.90
2018-05-13T06:23:25.895Z,99.90
2018-05-13T06:25:53.490Z,99.90
2018-05-13T06:28:21.090Z,99.90
2018-05-13T06:30:49.479Z,99.90
2018-05-13T06:33:17.068Z,99.90
2018-05-13T06:35:44.671Z,99.90
2018-05-13T06:38:12.282Z,99.90
2018-05-13T06:40:39.876Z,99.90
2018-05-13T06:43:07.471Z,99.90
2018-05-13T06:45:35.071Z,99.90
2018-05-13T06:48:02.693Z,99.90
2018-05-13T06:50:30.286Z,99.90
2018-05-13T06:52:57.889Z,99.90
2018-05-13T06:55:25.487Z,99.90
2018-05-13T06:57:53.078Z,99.90
2018-05-13T07:00:20.714Z,99.90
2018-05-13T07:02:48.334Z,99.90
2018-05-13T07:05:16.703Z,99.90
2018-05-13T07:07:44.307Z,99.90
2018-05-13T07:10:11.910Z,99.90
2018-05-13T07:12:39.503Z,99.90
2018-05-13T07:15:07.874Z,99.90
2018-05-13T07:17:35.563Z,99.90
2018-05-13T07:20:03.168Z,99.90
2018-05-13T07:22:30.785Z,99.90
2018-05-13T07:24:58.420Z,99.90
2018-05-13T07:27:26.014Z,99.90
2018-05-13T07:29:53.618Z,99.90
2018-05-13T07:32:21.231Z,99.90
2018-05-13T07:34:48.821Z,99.90
2018-05-13T07:37:16.423Z,99.90
2018-05-13T07:39:44.828Z,99.90
2018-05-13T07:42:12.454Z,99.90
2018-05-13T07:44:40.086Z,99.90
2018-05-13T07:47:07.690Z,99.90
2018-05-13T07:49:35.325Z,99.90
2018-05-13T07:52:02.935Z,99.90
2018-05-13T07:54:30.526Z,99.90
2018-05-13T07:56:58.117Z,99.90
2018-05-13T07:59:25.760Z,99.90
2018-05-13T08:01:53.365Z,99.90
2018-05-13T08:04:21.019Z,99.90
2018-05-13T08:06:49.409Z,99.90
2018-05-13T08:09:17.046Z,99.90
2018-05-13T08:11:44.643Z,99.90
2018-05-13T08:14:12.357Z,99.90
2018-05-13T08:16:39.967Z,99.90
2018-05-13T08:19:07.510Z,99.90
2018-05-13T08:21:35.886Z,99.90
2018-05-13T08:24:03.496Z,99.90
2018-05-13T08:26:31.094Z,99.90
2018-05-13T08:28:58.729Z,99.90
2018-05-13T08:31:27.095Z,99.90
2018-05-13T08:33:54.695Z,99.90
2018-05-13T08:36:22.326Z,99.90
2018-05-13T08:38:50.686Z,99.90
2018-05-13T08:41:18.286Z,99.90
2018-05-13T08:43:45.943Z,99.90
2018-05-13T08:46:13.585Z,99.90
2018-05-13T08:48:41.943Z,99.90
2018-05-13T08:51:09.549Z,99.90
2018-05-13T08:53:37.143Z,99.90
2018-05-13T08:56:04.747Z,99.90
2018-05-13T08:58:33.134Z,99.90
2018-05-13T09:01:00.770Z,99.90
2018-05-13T09:03:28.406Z,99.90
2018-05-13T09:05:56.010Z,99.90
2018-05-13T09:08:23.618Z,99.90
2018-05-13T09:10:51.222Z,99.90
2018-05-13T09:13:18.881Z,99.90
2018-05-13T09:15:46.478Z,99.90
2018-05-13T09:18:14.848Z,99.90
2018-05-13T09:20:42.532Z,99.90
2018-05-13T09:23:10.885Z,99.90
2018-05-13T09:25:38.484Z,99.90
2018-05-13T09:28:06.114Z,99.90
2018-05-13T09:30:34.502Z,99.90
2018-05-13T09:33:02.156Z,99.90
2018-05-13T09:35:29.751Z,99.90
2018-05-13T09:37:57.347Z,99.90
2018-05-13T09:40:24.974Z,99.90
2018-05-13T09:42:52.579Z,99.90
2018-05-13T09:45:20.177Z,99.90
2018-05-13T09:47:47.774Z,99.90
2018-05-13T09:50:15.386Z,99.90
2018-05-13T09:52:43.061Z,99.90
2018-05-13T09:55:10.671Z,99.90
2018-05-13T09:57:39.052Z,99.90
2018-05-13T10:00:06.730Z,99.90
2018-05-13T10:02:34.330Z,99.90
2018-05-13T10:05:01.980Z,99.90
2018-05-13T10:07:29.576Z,99.90
2018-05-13T10:09:57.167Z,99.90
2018-05-13T10:12:25.542Z,99.90
2018-05-13T10:14:53.894Z,99.90
2018-05-13T10:17:21.505Z,99.90
2018-05-13T10:19:49.126Z,99.90
2018-05-13T10:22:17.498Z,99.90
2018-05-13T10:24:45.869Z,99.90
2018-05-13T10:27:13.495Z,99.90
2018-05-13T10:29:41.102Z,99.90
2018-05-13T10:32:08.770Z,99.90
2018-05-13T10:34:36.382Z,99.90
2018-05-13T10:37:03.978Z,99.90
2018-05-13T10:39:32.344Z,99.90
2018-05-13T10:41:59.955Z,99.90
2018-05-13T10:44:27.546Z,99.90
2018-05-13T10:46:55.142Z,99.90
2018-05-13T10:49:23.547Z,99.90
2018-05-13T10:51:51.139Z,99.90
2018-05-13T10:54:18.726Z,99.90
2018-05-13T10:56:46.357Z,99.90
2018-05-13T10:59:13.957Z,99.90
2018-05-13T11:01:41.550Z,99.90
2018-05-13T11:04:09.918Z,99.90
2018-05-13T11:06:37.557Z,99.90
2018-05-13T11:09:05.934Z,99.90
2018-05-13T11:11:34.307Z,99.90
2018-05-13T11:14:01.902Z,99.90
2018-05-13T11:16:29.493Z,99.90
2018-05-13T11:18:57.110Z,99.90
2018-05-13T11:21:24.771Z,99.90
2018-05-13T11:23:53.130Z,99.90
2018-05-13T11:26:20.738Z,99.90
2018-05-13T11:28:48.334Z,99.90
2018-05-13T11:31:15.933Z,99.90
2018-05-13T11:33:43.568Z,99.90
2018-05-13T11:36:11.162Z,99.90
2018-05-13T11:38:38.863Z,99.90
2018-05-13T11:41:06.466Z,99.90
2018-05-13T11:43:34.110Z,99.90
2018-05-13T11:46:01.910Z,99.90
2018-05-13T11:48:43.331Z,99.90
2018-05-13T11:51:13.392Z,99.90
2018-05-13T11:56:57.971Z,99.90
2018-05-13T11:59:28.322Z,99.20
2018-05-13T12:01:56.388Z,99.10
2018-05-13T12:04:24.325Z,97.20
2018-05-13T12:06:52.734Z,96.60
2018-05-13T12:09:22.118Z,96.30
2018-05-13T12:11:50.741Z,95.60
2018-05-13T12:19:50.630Z,95.20
2018-05-13T12:22:21.402Z,96.10
2018-05-13T12:25:02.585Z,96.00
2018-05-13T12:27:36.184Z,95.50
2018-05-13T12:30:13.548Z,92.80
2018-05-13T12:35:17.580Z,93.60
2018-05-13T12:37:45.448Z,91.60
2018-05-13T12:40:13.892Z,91.60
2018-05-13T12:42:41.875Z,91.60
2018-05-13T12:45:10.077Z,91.80
2018-05-13T12:47:37.910Z,91.20
2018-05-13T12:50:10.509Z,93.00
2018-05-13T12:52:38.558Z,93.10
2018-05-13T12:55:06.259Z,91.80
2018-05-13T12:57:33.922Z,92.20
2018-05-13T13:00:01.652Z,93.20
2018-05-13T13:02:39.201Z,91.70
2018-05-13T13:05:06.878Z,89.80
2018-05-13T13:07:35.361Z,85.90
2018-05-13T13:10:03.699Z,85.90
2018-05-13T13:12:32.643Z,86.00
2018-05-13T13:15:00.839Z,89.80
2018-05-13T13:20:15.811Z,88.30
2018-05-13T13:22:52.783Z,87.30
2018-05-13T13:25:32.174Z,86.60
2018-05-13T13:28:00.769Z,86.30
2018-05-13T13:30:29.259Z,83.30
2018-05-13T13:32:57.014Z,80.80
2018-05-13T13:35:24.631Z,81.80
2018-05-13T13:37:52.966Z,86.90
2018-05-13T13:40:20.926Z,90.00
2018-05-13T13:42:48.584Z,85.30
2018-05-13T13:45:16.207Z,84.20
2018-05-13T13:47:46.883Z,82.40
2018-05-13T13:50:17.706Z,82.60
2018-05-13T13:58:41.446Z,81.00
2018-05-13T14:01:32.194Z,84.70
2018-05-13T14:07:22.782Z,82.20
2018-05-13T14:09:50.390Z,87.50
2018-05-13T14:12:17.985Z,75.20
2018-05-13T14:14:45.694Z,74.20
2018-05-13T14:17:13.321Z,67.10
2018-05-13T14:19:40.935Z,62.70
2018-05-13T14:22:08.530Z,67.10
2018-05-13T14:24:36.183Z,77.90
2018-05-13T14:27:03.971Z,77.30
2018-05-13T14:29:31.598Z,81.70
2018-05-13T14:31:59.214Z,83.30
2018-05-13T14:34:27.408Z,88.00
2018-05-13T14:36:55.016Z,83.60
2018-05-13T14:39:22.634Z,86.40
2018-05-13T14:41:50.225Z,86.30
2018-05-13T14:44:17.883Z,85.00
2018-05-13T14:46:46.718Z,75.90
2018-05-13T14:49:14.316Z,59.00
2018-05-13T14:51:41.914Z,57.20
2018-05-13T14:54:09.588Z,41.50
2018-05-13T14:56:37.215Z,41.90
2018-05-13T14:59:04.823Z,39.00
2018-05-13T15:01:32.434Z,40.20
2018-05-13T15:04:00.033Z,45.40
2018-05-13T15:06:28.386Z,51.80
2018-05-13T15:08:56.018Z,51.70
2018-05-13T15:11:24.005Z,52.90
2018-05-13T15:13:52.433Z,57.80
2018-05-13T15:16:20.053Z,63.60
2018-05-13T15:18:47.707Z,65.40
2018-05-13T15:21:15.313Z,71.30
2018-05-13T15:23:43.698Z,80.20
2018-05-13T15:26:11.294Z,80.10
2018-05-13T15:28:38.894Z,81.80
2018-05-13T15:31:07.286Z,82.30
2018-05-13T15:33:35.655Z,83.90
2018-05-13T15:36:04.015Z,84.10
2018-05-13T15:38:31.634Z,84.10
2018-05-13T15:40:59.739Z,81.40
2018-05-13T15:44:01.409Z,78.50
2018-05-13T15:46:29.100Z,72.50
2018-05-13T15:48:56.715Z,77.70
2018-05-13T15:51:24.339Z,76.20
2018-05-13T15:56:55.869Z,76.70
2018-05-13T15:59:33.246Z,86.20
2018-05-13T16:02:00.843Z,85.70
2018-05-13T16:04:28.449Z,81.70
2018-05-13T16:06:56.081Z,87.10
2018-05-13T16:09:23.693Z,82.50
2018-05-13T16:11:51.299Z,83.90
2018-05-13T16:14:18.910Z,86.20
2018-05-13T16:16:46.517Z,89.80
2018-05-13T16:19:14.157Z,83.80
2018-05-13T16:21:41.807Z,87.30
2018-05-13T16:24:10.170Z,92.10
2018-05-13T16:26:37.773Z,92.00
2018-05-13T16:29:05.394Z,91.60
2018-05-13T16:31:32.999Z,91.30
2018-05-13T16:34:00.593Z,91.90
2018-05-13T16:36:28.202Z,94.30
2018-05-13T16:38:55.804Z,94.40
2018-05-13T16:41:23.405Z,96.00
2018-05-13T16:43:51.041Z,95.60
2018-05-13T16:46:18.653Z,95.20
2018-05-13T16:48:46.286Z,93.60
2018-05-13T16:51:14.671Z,95.10
2018-05-13T16:53:43.026Z,99.10
2018-05-13T16:56:10.627Z,99.00
2018-05-13T16:58:38.238Z,99.20
2018-05-13T17:01:05.952Z,99.90
2018-05-13T17:03:33.622Z,99.00
2018-05-13T17:06:01.259Z,96.50
2018-05-13T17:08:29.619Z,98.90
2018-05-13T17:10:57.989Z,96.60
2018-05-13T17:13:25.619Z,96.60
2018-05-13T17:15:53.981Z,94.20
2018-05-13T17:18:21.590Z,94.20
2018-05-13T17:20:49.218Z,95.60
2018-05-13T17:23:16.814Z,92.90
2018-05-13T17:25:44.421Z,94.70
2018-05-13T17:28:12.029Z,95.90
2018-05-13T17:30:39.630Z,99.30
2018-05-13T17:33:07.255Z,96.40
2018-05-13T17:35:35.005Z,99.90
2018-05-13T17:38:02.622Z,99.90
2018-05-13T17:40:30.254Z,99.90
2018-05-13T17:42:58.626Z,99.90
2018-05-13T17:45:26.988Z,99.90
2018-05-13T17:47:54.657Z,99.90
2018-05-13T17:50:22.214Z,99.90
2018-05-13T17:52:49.835Z,99.90
2018-05-13T17:55:17.458Z,99.90
2018-05-13T17:57:45.830Z,99.90
2018-05-13T18:00:14.190Z,99.90
2018-05-13T18:02:42.562Z,99.90
2018-05-13T18:05:10.207Z,99.90
2018-05-13T18:07:37.811Z,99.90
2018-05-13T18:10:06.191Z,99.90
2018-05-13T18:12:34.566Z,99.90
2018-05-13T18:15:02.182Z,99.90
2018-05-13T18:17:29.798Z,99.90
2018-05-13T18:19:57.462Z,99.90
2018-05-13T18:22:25.075Z,99.90
2018-05-13T18:24:52.763Z,99.90
2018-05-13T18:27:20.406Z,99.90
2018-05-13T18:29:48.009Z,99.90
2018-05-13T18:32:15.616Z,99.90
2018-05-13T18:34:43.224Z,99.90
2018-05-13T18:37:10.818Z,99.90
2018-05-13T18:39:38.456Z,99.90
2018-05-13T18:42:06.064Z,99.90
2018-05-13T18:44:33.761Z,99.90
2018-05-13T18:47:01.301Z,99.90
2018-05-13T18:49:28.939Z,99.90
2018-05-13T18:51:56.544Z,99.90
2018-05-13T18:54:24.149Z,99.90
2018-05-13T18:56:51.797Z,99.90
2018-05-13T18:59:19.466Z,99.90
2018-05-13T19:01:47.028Z,99.90
2018-05-13T19:04:14.643Z,99.90
2018-05-13T19:06:42.261Z,99.90
2018-05-13T19:09:09.858Z,99.90
2018-05-13T19:11:38.250Z,99.90
2018-05-13T19:14:05.863Z,99.90
2018-05-13T19:16:33.465Z,99.90
2018-05-13T19:19:01.870Z,99.90
2018-05-13T19:21:29.538Z,99.90
2018-05-13T19:23:57.160Z,99.90
2018-05-13T19:26:24.774Z,99.90
2018-05-13T19:28:52.379Z,99.90
2018-05-13T19:31:19.975Z,99.90
2018-05-13T19:33:47.588Z,99.90
2018-05-13T19:36:15.953Z,99.90
2018-05-13T19:38:45.061Z,99.90
2018-05-13T19:41:13.477Z,99.90
2018-05-13T19:43:41.085Z,99.90
2018-05-13T19:46:08.682Z,99.90
2018-05-13T19:51:39.382Z,99.90
2018-05-13T19:54:07.050Z,99.90
2018-05-13T19:56:34.622Z,99.90
2018-05-13T19:59:02.415Z,99.90
2018-05-13T20:01:30.008Z,99.90
2018-05-13T20:03:57.651Z,99.90
2018-05-13T20:06:25.325Z,99.90
2018-05-13T20:08:52.962Z,99.90
2018-05-13T20:11:20.603Z,99.90
2018-05-13T20:13:48.274Z,99.90
2018-05-13T20:16:15.904Z,99.90
2018-05-13T20:18:43.530Z,99.90
2018-05-13T20:21:11.165Z,99.90
2018-05-13T20:23:38.775Z,99.90
2018-05-13T20:26:06.395Z,99.90
2018-05-13T20:28:34.058Z,99.90
2018-05-13T20:31:01.672Z,99.90
2018-05-13T20:33:29.274Z,99.90
2018-05-13T20:35:57.003Z,99.90
2018-05-13T20:38:24.561Z,99.90
2018-05-13T20:40:52.180Z,99.90
2018-05-13T20:43:19.804Z,99.90
2018-05-13T20:45:48.164Z,99.90
2018-05-13T20:48:15.780Z,99.90
2018-05-13T20:50:43.420Z,99.90
2018-05-13T20:53:11.022Z,99.90
2018-05-13T20:55:38.630Z,99.90
2018-05-13T20:58:07.002Z,99.90
2018-05-13T21:00:34.629Z,99.90
2018-05-13T21:03:02.267Z,99.90
2018-05-13T21:05:29.883Z,99.90
2018-05-13T21:07:57.518Z,99.90
2018-05-13T21:10:25.202Z,99.90
2018-05-13T21:12:52.855Z,99.90
2018-05-13T21:15:21.323Z,99.90
2018-05-13T21:17:49.024Z,99.90
2018-05-13T21:20:16.691Z,99.90
2018-05-13T21:22:44.316Z,99.90
2018-05-13T21:25:11.915Z,99.90
2018-05-13T21:27:39.530Z,99.90
2018-05-13T21:30:07.228Z,99.90
2018-05-13T21:32:34.766Z,99.90
2018-05-13T21:35:03.139Z,99.90
2018-05-13T21:37:31.498Z,99.90
2018-05-13T21:39:59.154Z,99.90
2018-05-13T21:42:26.817Z,99.90
2018-05-13T21:44:54.437Z,99.90
2018-05-13T21:47:22.042Z,99.90
2018-05-13T21:49:49.672Z,99.90
2018-05-13T21:52:17.263Z,99.90
2018-05-13T21:54:44.875Z,99.90
2018-05-13T21:57:12.503Z,99.90
2018-05-13T21:59:40.130Z,99.90
2018-05-13T22:02:07.730Z,99.90
2018-05-13T22:04:35.342Z,99.90
2018-05-13T22:07:02.970Z,99.90
2018-05-13T22:09:30.566Z,99.90
2018-05-13T22:11:58.218Z,99.90
2018-05-13T22:14:25.809Z,99.90
2018-05-13T22:16:53.399Z,99.90
2018-05-13T22:19:21.766Z,99.90
2018-05-13T22:21:49.502Z,99.90
2018-05-13T22:24:17.097Z,99.90
2018-05-13T22:26:44.710Z,99.90
2018-05-13T22:29:12.306Z,99.90
2018-05-13T22:31:40.666Z,99.90
2018-05-13T22:34:08.282Z,99.90
2018-05-13T22:36:35.981Z,99.90
2018-05-13T22:39:03.569Z,99.90
2018-05-13T22:41:31.942Z,99.90
2018-05-13T22:44:00.327Z,99.90
2018-05-13T22:46:28.695Z,99.90
2018-05-13T22:48:56.327Z,99.90
2018-05-13T22:51:23.925Z,99.90
2018-05-13T22:53:52.310Z,99.90
2018-05-13T22:56:19.926Z,99.90
2018-05-13T22:58:47.524Z,99.90
2018-05-13T23:01:15.890Z,99.90
2018-05-13T23:03:43.498Z,99.90
2018-05-13T23:06:11.126Z,99.90
2018-05-13T23:08:38.722Z,99.90
2018-05-13T23:11:06.326Z,99.90
2018-05-13T23:13:33.922Z,99.90
2018-05-13T23:16:01.656Z,99.90
2018-05-13T23:18:29.271Z,99.90
2018-05-13T23:20:56.865Z,99.90
2018-05-13T23:23:24.463Z,99.90
2018-05-13T23:25:52.094Z,99.90
2018-05-13T23:28:19.708Z,99.90
2018-05-13T23:30:47.319Z,99.90
2018-05-13T23:33:14.926Z,99.90
2018-05-13T23:35:42.550Z,99.90
2018-05-13T23:38:10.155Z,99.90
2018-05-13T23:40:37.766Z,99.90
2018-05-13T23:43:05.432Z,99.90
2018-05-13T23:45:33.004Z,99.90
2018-05-13T23:48:00.603Z,99.90
2018-05-13T23:50:28.200Z,99.90
2018-05-13T23:52:56.563Z,99.90
2018-05-13T23:55:24.162Z,99.90
2018-05-13T23:57:51.770Z,99.90
